sensor_id;sensor_type;location;lat;lon;timestamp;P1;durP1;ratioP1;P2;durP2;ratioP2
79583;SDS011;69053;57.338;18.700;2023-07-13T01:22:35;31.38;;;6.15;;
79583;SDS011;69053;57.338;18.700;2023-07-13T04:43:47;6.88;;;4.20;;
79583;SDS011;69053;57.338;18.700;2023-07-13T04:50:22;6.93;;;4.72;;
79583;SDS011;69053;57.338;18.700;2023-07-13T04:53:28;7.57;;;4.82;;
79583;SDS011;69053;57.338;18.700;2023-07-13T04:56:29;5.43;;;3.47;;
79583;SDS011;69053;57.338;18.700;2023-07-13T04:59:33;6.00;;;3.75;;
79583;SDS011;69053;57.338;18.700;2023-07-13T05:02:44;7.50;;;3.55;;
79583;SDS011;69053;57.338;18.700;2023-07-13T05:05:58;9.32;;;4.32;;
79583;SDS011;69053;57.338;18.700;2023-07-13T05:09:27;8.63;;;4.68;;
79583;SDS011;69053;57.338;18.700;2023-07-13T05:23:03;5.30;;;3.63;;
79583;SDS011;69053;57.338;18.700;2023-07-13T05:26:04;7.78;;;4.05;;
79583;SDS011;69053;57.338;18.700;2023-07-13T05:29:05;5.03;;;3.50;;
79583;SDS011;69053;57.338;18.700;2023-07-13T05:32:05;5.05;;;3.55;;
79583;SDS011;69053;57.338;18.700;2023-07-13T05:35:06;4.72;;;3.58;;
79583;SDS011;69053;57.338;18.700;2023-07-13T05:38:07;6.75;;;3.65;;
79583;SDS011;69053;57.338;18.700;2023-07-13T05:41:11;7.35;;;3.75;;
79583;SDS011;69053;57.338;18.700;2023-07-13T05:44:14;4.88;;;3.58;;
79583;SDS011;69053;57.338;18.700;2023-07-13T05:47:16;5.00;;;3.53;;
79583;SDS011;69053;57.338;18.700;2023-07-13T05:50:18;5.95;;;4.13;;
79583;SDS011;69053;57.338;18.700;2023-07-13T05:53:18;4.32;;;3.00;;
79583;SDS011;69053;57.338;18.700;2023-07-13T05:56:19;4.15;;;2.88;;
79583;SDS011;69053;57.338;18.700;2023-07-13T05:59:20;5.60;;;2.75;;
79583;SDS011;69053;57.338;18.700;2023-07-13T06:02:20;4.60;;;2.63;;
79583;SDS011;69053;57.338;18.700;2023-07-13T06:05:21;5.88;;;3.10;;
79583;SDS011;69053;57.338;18.700;2023-07-13T06:08:21;5.70;;;2.67;;
79583;SDS011;69053;57.338;18.700;2023-07-13T06:11:23;4.70;;;2.97;;
79583;SDS011;69053;57.338;18.700;2023-07-13T06:14:25;4.47;;;2.45;;
79583;SDS011;69053;57.338;18.700;2023-07-13T06:17:26;6.13;;;2.80;;
79583;SDS011;69053;57.338;18.700;2023-07-13T06:20:27;5.80;;;3.05;;
79583;SDS011;69053;57.338;18.700;2023-07-13T06:23:29;5.45;;;2.70;;
79583;SDS011;69053;57.338;18.700;2023-07-13T06:26:30;4.60;;;2.80;;
79583;SDS011;69053;57.338;18.700;2023-07-13T06:29:30;4.50;;;2.10;;
79583;SDS011;69053;57.338;18.700;2023-07-13T06:32:31;3.97;;;2.75;;
79583;SDS011;69053;57.338;18.700;2023-07-13T06:35:32;4.30;;;2.90;;
79583;SDS011;69053;57.338;18.700;2023-07-13T06:38:32;5.60;;;2.45;;
79583;SDS011;69053;57.338;18.700;2023-07-13T06:41:33;3.97;;;2.50;;
79583;SDS011;69053;57.338;18.700;2023-07-13T06:44:34;5.88;;;2.58;;
79583;SDS011;69053;57.338;18.700;2023-07-13T06:47:35;5.22;;;2.10;;
79583;SDS011;69053;57.338;18.700;2023-07-13T06:50:37;4.60;;;2.55;;
79583;SDS011;69053;57.338;18.700;2023-07-13T06:53:37;6.35;;;2.92;;
79583;SDS011;69053;57.338;18.700;2023-07-13T06:56:38;3.95;;;2.20;;
79583;SDS011;69053;57.338;18.700;2023-07-13T06:59:38;4.45;;;2.25;;
79583;SDS011;69053;57.338;18.700;2023-07-13T07:02:48;5.05;;;2.72;;
79583;SDS011;69053;57.338;18.700;2023-07-13T07:06:12;3.47;;;1.98;;
79583;SDS011;69053;57.338;18.700;2023-07-13T07:09:27;2.92;;;2.03;;
79583;SDS011;69053;57.338;18.700;2023-07-13T07:12:30;3.92;;;2.00;;
79583;SDS011;69053;57.338;18.700;2023-07-13T07:15:35;3.75;;;2.10;;
79583;SDS011;69053;57.338;18.700;2023-07-13T07:21:39;4.13;;;2.03;;
79583;SDS011;69053;57.338;18.700;2023-07-13T07:24:40;3.75;;;1.73;;
79583;SDS011;69053;57.338;18.700;2023-07-13T07:27:40;2.55;;;1.60;;
79583;SDS011;69053;57.338;18.700;2023-07-13T07:30:59;3.78;;;1.50;;
79583;SDS011;69053;57.338;18.700;2023-07-13T07:34:00;2.20;;;1.33;;
79583;SDS011;69053;57.338;18.700;2023-07-13T07:37:01;4.22;;;1.73;;
79583;SDS011;69053;57.338;18.700;2023-07-13T07:40:02;1.88;;;1.60;;
79583;SDS011;69053;57.338;18.700;2023-07-13T07:43:03;2.72;;;1.75;;
79583;SDS011;69053;57.338;18.700;2023-07-13T07:46:03;3.38;;;1.75;;
79583;SDS011;69053;57.338;18.700;2023-07-13T07:49:04;4.20;;;1.83;;
79583;SDS011;69053;57.338;18.700;2023-07-13T07:52:05;2.00;;;1.35;;
79583;SDS011;69053;57.338;18.700;2023-07-13T07:55:06;2.63;;;1.50;;
79583;SDS011;69053;57.338;18.700;2023-07-13T07:58:07;2.38;;;1.60;;
79583;SDS011;69053;57.338;18.700;2023-07-13T08:01:08;2.53;;;1.60;;
79583;SDS011;69053;57.338;18.700;2023-07-13T08:04:09;3.08;;;1.30;;
79583;SDS011;69053;57.338;18.700;2023-07-13T08:07:09;3.80;;;0.98;;
79583;SDS011;69053;57.338;18.700;2023-07-13T08:10:10;1.83;;;1.20;;
79583;SDS011;69053;57.338;18.700;2023-07-13T08:13:13;2.60;;;1.02;;
79583;SDS011;69053;57.338;18.700;2023-07-13T08:16:14;1.48;;;1.02;;
79583;SDS011;69053;57.338;18.700;2023-07-13T08:19:16;2.17;;;1.15;;
79583;SDS011;69053;57.338;18.700;2023-07-13T08:22:16;2.53;;;1.13;;
79583;SDS011;69053;57.338;18.700;2023-07-13T08:25:20;2.15;;;1.30;;
79583;SDS011;69053;57.338;18.700;2023-07-13T08:28:22;4.70;;;1.45;;
79583;SDS011;69053;57.338;18.700;2023-07-13T08:34:32;2.55;;;1.00;;
79583;SDS011;69053;57.338;18.700;2023-07-13T08:37:34;2.70;;;1.02;;
79583;SDS011;69053;57.338;18.700;2023-07-13T08:59:47;4.43;;;1.10;;
79583;SDS011;69053;57.338;18.700;2023-07-13T09:30:02;2.63;;;0.50;;
79583;SDS011;69053;57.338;18.700;2023-07-13T09:53:57;1.60;;;0.73;;
79583;SDS011;69053;57.338;18.700;2023-07-13T10:03:34;4.80;;;0.63;;
79583;SDS011;69053;57.338;18.700;2023-07-13T10:06:42;4.20;;;1.05;;
79583;SDS011;69053;57.338;18.700;2023-07-13T10:09:44;2.10;;;0.65;;
79583;SDS011;69053;57.338;18.700;2023-07-13T10:43:22;2.05;;;0.52;;
79583;SDS011;69053;57.338;18.700;2023-07-13T11:00:32;1.52;;;0.60;;
79583;SDS011;69053;57.338;18.700;2023-07-13T11:03:55;1.88;;;0.90;;
79583;SDS011;69053;57.338;18.700;2023-07-13T11:07:10;1.67;;;0.57;;
79583;SDS011;69053;57.338;18.700;2023-07-13T11:14:34;1.35;;;0.55;;
79583;SDS011;69053;57.338;18.700;2023-07-13T11:21:36;2.35;;;0.90;;
79583;SDS011;69053;57.338;18.700;2023-07-13T11:42:26;2.03;;;0.90;;
79583;SDS011;69053;57.338;18.700;2023-07-13T11:51:47;2.30;;;0.75;;
79583;SDS011;69053;57.338;18.700;2023-07-13T11:58:14;2.08;;;0.93;;
79583;SDS011;69053;57.338;18.700;2023-07-13T12:05:26;3.17;;;1.00;;
79583;SDS011;69053;57.338;18.700;2023-07-13T12:08:31;1.48;;;0.90;;
79583;SDS011;69053;57.338;18.700;2023-07-13T12:15:40;2.05;;;1.00;;
79583;SDS011;69053;57.338;18.700;2023-07-13T12:27:13;2.22;;;1.00;;
79583;SDS011;69053;57.338;18.700;2023-07-13T12:33:39;1.83;;;0.95;;
79583;SDS011;69053;57.338;18.700;2023-07-13T12:40:52;1.40;;;0.77;;
79583;SDS011;69053;57.338;18.700;2023-07-13T12:44:32;1.85;;;1.00;;
79583;SDS011;69053;57.338;18.700;2023-07-13T13:08:17;2.20;;;0.85;;
79583;SDS011;69053;57.338;18.700;2023-07-13T13:21:06;3.10;;;1.00;;
79583;SDS011;69053;57.338;18.700;2023-07-13T13:24:40;0.60;;;0.60;;
79583;SDS011;69053;57.338;18.700;2023-07-13T13:37:28;0.82;;;0.50;;
79583;SDS011;69053;57.338;18.700;2023-07-13T14:00:32;3.10;;;1.00;;
79583;SDS011;69053;57.338;18.700;2023-07-13T14:04:15;1.58;;;0.77;;
79583;SDS011;69053;57.338;18.700;2023-07-13T14:40:35;3.17;;;0.57;;
79583;SDS011;69053;57.338;18.700;2023-07-13T15:08:17;3.25;;;0.80;;
79583;SDS011;69053;57.338;18.700;2023-07-13T15:11:23;2.58;;;0.93;;
79583;SDS011;69053;57.338;18.700;2023-07-13T15:14:29;3.13;;;0.65;;
79583;SDS011;69053;57.338;18.700;2023-07-13T15:17:53;2.45;;;0.80;;
79583;SDS011;69053;57.338;18.700;2023-07-13T15:30:54;1.65;;;0.90;;
79583;SDS011;69053;57.338;18.700;2023-07-13T15:33:55;2.70;;;0.90;;
79583;SDS011;69053;57.338;18.700;2023-07-13T15:37:03;1.50;;;0.82;;
79583;SDS011;69053;57.338;18.700;2023-07-13T15:40:10;3.17;;;1.08;;
79583;SDS011;69053;57.338;18.700;2023-07-13T15:43:13;1.00;;;0.80;;
79583;SDS011;69053;57.338;18.700;2023-07-13T15:46:45;2.50;;;0.80;;
79583;SDS011;69053;57.338;18.700;2023-07-13T15:50:08;1.70;;;0.80;;
79583;SDS011;69053;57.338;18.700;2023-07-13T15:59:39;4.28;;;0.90;;
79583;SDS011;69053;57.338;18.700;2023-07-13T16:02:44;1.80;;;0.70;;
79583;SDS011;69053;57.338;18.700;2023-07-13T16:09:51;3.05;;;0.90;;
79583;SDS011;69053;57.338;18.700;2023-07-13T16:16:15;3.63;;;0.80;;
79583;SDS011;69053;57.338;18.700;2023-07-13T16:19:31;1.48;;;0.47;;
79583;SDS011;69053;57.338;18.700;2023-07-13T16:22:33;1.63;;;0.60;;
79583;SDS011;69053;57.338;18.700;2023-07-13T16:26:04;1.08;;;0.50;;
79583;SDS011;69053;57.338;18.700;2023-07-13T16:29:14;1.42;;;0.50;;
79583;SDS011;69053;57.338;18.700;2023-07-13T16:32:45;1.45;;;0.30;;
79583;SDS011;69053;57.338;18.700;2023-07-13T16:35:51;0.77;;;0.40;;
79583;SDS011;69053;57.338;18.700;2023-07-13T16:45:32;0.60;;;0.35;;
79583;SDS011;69053;57.338;18.700;2023-07-13T16:53:24;1.23;;;0.50;;
79583;SDS011;69053;57.338;18.700;2023-07-13T17:04:44;2.28;;;0.38;;
79583;SDS011;69053;57.338;18.700;2023-07-13T17:11:30;2.25;;;0.50;;
79583;SDS011;69053;57.338;18.700;2023-07-13T17:15:13;2.88;;;0.30;;
79583;SDS011;69053;57.338;18.700;2023-07-13T17:32:01;1.50;;;0.40;;
79583;SDS011;69053;57.338;18.700;2023-07-13T17:35:24;1.08;;;0.30;;
79583;SDS011;69053;57.338;18.700;2023-07-13T17:38:35;1.23;;;0.38;;
79583;SDS011;69053;57.338;18.700;2023-07-13T17:41:46;0.47;;;0.20;;
79583;SDS011;69053;57.338;18.700;2023-07-13T17:45:00;0.45;;;0.30;;
79583;SDS011;69053;57.338;18.700;2023-07-13T17:48:03;0.75;;;0.30;;
79583;SDS011;69053;57.338;18.700;2023-07-13T17:51:10;0.93;;;0.50;;
79583;SDS011;69053;57.338;18.700;2023-07-13T17:54:14;0.75;;;0.30;;
79583;SDS011;69053;57.338;18.700;2023-07-13T17:57:33;1.52;;;0.32;;
79583;SDS011;69053;57.338;18.700;2023-07-13T18:00:46;0.85;;;0.50;;
79583;SDS011;69053;57.338;18.700;2023-07-13T18:03:52;1.05;;;0.30;;
79583;SDS011;69053;57.338;18.700;2023-07-13T18:07:16;1.63;;;0.50;;
79583;SDS011;69053;57.338;18.700;2023-07-13T18:13:43;1.10;;;0.47;;
79583;SDS011;69053;57.338;18.700;2023-07-13T18:20:09;1.13;;;0.55;;
79583;SDS011;69053;57.338;18.700;2023-07-13T18:23:22;2.65;;;0.52;;
79583;SDS011;69053;57.338;18.700;2023-07-13T18:26:25;1.92;;;0.60;;
79583;SDS011;69053;57.338;18.700;2023-07-13T18:29:26;0.93;;;0.65;;
79583;SDS011;69053;57.338;18.700;2023-07-13T18:32:26;2.35;;;0.80;;
79583;SDS011;69053;57.338;18.700;2023-07-13T18:35:32;0.90;;;0.57;;
79583;SDS011;69053;57.338;18.700;2023-07-13T18:38:34;1.40;;;0.40;;
79583;SDS011;69053;57.338;18.700;2023-07-13T18:41:37;1.77;;;0.40;;
79583;SDS011;69053;57.338;18.700;2023-07-13T18:44:39;2.30;;;0.95;;
79583;SDS011;69053;57.338;18.700;2023-07-13T19:01:02;1.88;;;0.77;;
79583;SDS011;69053;57.338;18.700;2023-07-13T19:24:14;3.28;;;1.40;;
79583;SDS011;69053;57.338;18.700;2023-07-13T19:30:57;6.10;;;1.48;;
79583;SDS011;69053;57.338;18.700;2023-07-13T19:37:21;3.83;;;1.63;;
79583;SDS011;69053;57.338;18.700;2023-07-13T19:43:36;4.55;;;1.60;;
79583;SDS011;69053;57.338;18.700;2023-07-13T19:46:51;3.70;;;1.25;;
79583;SDS011;69053;57.338;18.700;2023-07-13T19:53:15;4.15;;;2.00;;
79583;SDS011;69053;57.338;18.700;2023-07-13T19:56:19;4.55;;;1.70;;
79583;SDS011;69053;57.338;18.700;2023-07-13T19:59:29;5.10;;;1.63;;
79583;SDS011;69053;57.338;18.700;2023-07-13T20:02:41;2.95;;;1.40;;
79583;SDS011;69053;57.338;18.700;2023-07-13T20:05:44;2.55;;;1.58;;
79583;SDS011;69053;57.338;18.700;2023-07-13T20:09:11;1.65;;;0.93;;
79583;SDS011;69053;57.338;18.700;2023-07-13T20:12:18;5.78;;;1.65;;
79583;SDS011;69053;57.338;18.700;2023-07-13T20:15:46;2.40;;;1.17;;
79583;SDS011;69053;57.338;18.700;2023-07-13T20:18:50;3.15;;;1.40;;
79583;SDS011;69053;57.338;18.700;2023-07-13T20:21:50;5.95;;;1.55;;
79583;SDS011;69053;57.338;18.700;2023-07-13T20:24:52;8.60;;;1.35;;
79583;SDS011;69053;57.338;18.700;2023-07-13T20:27:54;2.50;;;1.10;;
79583;SDS011;69053;57.338;18.700;2023-07-13T20:30:59;3.78;;;1.35;;
79583;SDS011;69053;57.338;18.700;2023-07-13T20:34:18;6.32;;;1.42;;
79583;SDS011;69053;57.338;18.700;2023-07-13T20:40:52;3.08;;;1.52;;
79583;SDS011;69053;57.338;18.700;2023-07-13T20:43:56;4.00;;;1.23;;
79583;SDS011;69053;57.338;18.700;2023-07-13T20:46:56;2.72;;;1.30;;
79583;SDS011;69053;57.338;18.700;2023-07-13T20:50:02;5.03;;;1.50;;
79583;SDS011;69053;57.338;18.700;2023-07-13T20:53:04;2.45;;;1.17;;
79583;SDS011;69053;57.338;18.700;2023-07-13T20:56:13;4.72;;;1.50;;
79583;SDS011;69053;57.338;18.700;2023-07-13T20:59:15;3.03;;;1.23;;
79583;SDS011;69053;57.338;18.700;2023-07-13T21:05:23;2.33;;;1.33;;
79583;SDS011;69053;57.338;18.700;2023-07-13T21:08:25;4.18;;;1.00;;
79583;SDS011;69053;57.338;18.700;2023-07-13T21:11:26;3.65;;;1.30;;
79583;SDS011;69053;57.338;18.700;2023-07-13T21:14:27;2.05;;;1.17;;
79583;SDS011;69053;57.338;18.700;2023-07-13T21:17:34;2.28;;;1.17;;
79583;SDS011;69053;57.338;18.700;2023-07-13T21:20:36;3.88;;;1.40;;
79583;SDS011;69053;57.338;18.700;2023-07-13T21:23:40;3.20;;;1.50;;
79583;SDS011;69053;57.338;18.700;2023-07-13T21:26:40;3.70;;;1.30;;
79583;SDS011;69053;57.338;18.700;2023-07-13T21:29:42;5.68;;;1.60;;
79583;SDS011;69053;57.338;18.700;2023-07-13T21:32:44;3.45;;;1.73;;
79583;SDS011;69053;57.338;18.700;2023-07-13T21:35:46;4.40;;;1.25;;
79583;SDS011;69053;57.338;18.700;2023-07-13T21:38:53;3.10;;;1.30;;
79583;SDS011;69053;57.338;18.700;2023-07-13T21:41:58;2.42;;;1.55;;
79583;SDS011;69053;57.338;18.700;2023-07-13T21:44:59;3.88;;;1.45;;
79583;SDS011;69053;57.338;18.700;2023-07-13T21:47:59;2.00;;;1.20;;
79583;SDS011;69053;57.338;18.700;2023-07-13T21:51:00;2.80;;;1.50;;
79583;SDS011;69053;57.338;18.700;2023-07-13T21:54:01;2.38;;;1.40;;
79583;SDS011;69053;57.338;18.700;2023-07-13T21:57:01;4.65;;;1.52;;
79583;SDS011;69053;57.338;18.700;2023-07-13T22:00:02;4.18;;;1.65;;
79583;SDS011;69053;57.338;18.700;2023-07-13T22:03:04;5.18;;;1.77;;
79583;SDS011;69053;57.338;18.700;2023-07-13T22:06:19;3.55;;;1.65;;
79583;SDS011;69053;57.338;18.700;2023-07-13T22:09:27;3.72;;;1.60;;
79583;SDS011;69053;57.338;18.700;2023-07-13T22:12:28;2.10;;;1.73;;
79583;SDS011;69053;57.338;18.700;2023-07-13T22:15:29;5.30;;;1.30;;
79583;SDS011;69053;57.338;18.700;2023-07-13T22:18:29;3.95;;;1.60;;
79583;SDS011;69053;57.338;18.700;2023-07-13T22:21:30;2.85;;;1.40;;
79583;SDS011;69053;57.338;18.700;2023-07-13T22:24:31;1.92;;;1.15;;
79583;SDS011;69053;57.338;18.700;2023-07-13T22:27:32;3.53;;;1.30;;
79583;SDS011;69053;57.338;18.700;2023-07-13T22:30:33;3.00;;;1.92;;
79583;SDS011;69053;57.338;18.700;2023-07-13T22:33:34;3.15;;;1.35;;
79583;SDS011;69053;57.338;18.700;2023-07-13T22:36:34;2.97;;;1.70;;
79583;SDS011;69053;57.338;18.700;2023-07-13T22:39:35;3.53;;;1.40;;
79583;SDS011;69053;57.338;18.700;2023-07-13T22:42:35;3.60;;;1.65;;
79583;SDS011;69053;57.338;18.700;2023-07-13T22:45:36;3.35;;;1.42;;
79583;SDS011;69053;57.338;18.700;2023-07-13T22:48:41;2.45;;;1.45;;
79583;SDS011;69053;57.338;18.700;2023-07-13T22:51:44;3.22;;;1.17;;
79583;SDS011;69053;57.338;18.700;2023-07-13T22:54:44;2.17;;;1.20;;
79583;SDS011;69053;57.338;18.700;2023-07-13T22:57:47;3.60;;;1.60;;
79583;SDS011;69053;57.338;18.700;2023-07-13T23:00:49;3.00;;;1.25;;
79583;SDS011;69053;57.338;18.700;2023-07-13T23:03:50;3.50;;;1.52;;
79583;SDS011;69053;57.338;18.700;2023-07-13T23:06:52;3.00;;;1.48;;
79583;SDS011;69053;57.338;18.700;2023-07-13T23:09:53;2.75;;;1.50;;
79583;SDS011;69053;57.338;18.700;2023-07-13T23:12:54;2.70;;;1.35;;
79583;SDS011;69053;57.338;18.700;2023-07-13T23:16:00;2.38;;;1.20;;
79583;SDS011;69053;57.338;18.700;2023-07-13T23:19:01;3.13;;;1.50;;
79583;SDS011;69053;57.338;18.700;2023-07-13T23:22:02;1.77;;;1.00;;
79583;SDS011;69053;57.338;18.700;2023-07-13T23:25:14;4.63;;;1.17;;
79583;SDS011;69053;57.338;18.700;2023-07-13T23:28:16;5.32;;;2.97;;
79583;SDS011;69053;57.338;18.700;2023-07-13T23:31:26;5.10;;;2.63;;
79583;SDS011;69053;57.338;18.700;2023-07-13T23:34:29;3.28;;;1.60;;
79583;SDS011;69053;57.338;18.700;2023-07-13T23:37:30;2.90;;;1.75;;
79583;SDS011;69053;57.338;18.700;2023-07-13T23:40:31;3.22;;;1.23;;
79583;SDS011;69053;57.338;18.700;2023-07-13T23:43:31;4.70;;;1.50;;
79583;SDS011;69053;57.338;18.700;2023-07-13T23:49:48;2.65;;;1.60;;
79583;SDS011;69053;57.338;18.700;2023-07-13T23:52:49;3.55;;;2.15;;
79583;SDS011;69053;57.338;18.700;2023-07-13T23:55:50;3.72;;;1.77;;
79583;SDS011;69053;57.338;18.700;2023-07-13T23:58:51;3.53;;;1.75;;
